createdAt,value
2022-10-04T00:00:43.331Z,101297.47
2022-10-04T00:03:49.316Z,101290.53
2022-10-04T00:06:59.849Z,101281.78
2022-10-04T00:10:18.848Z,101287.03
2022-10-04T00:13:25.494Z,101280.06
2022-10-04T00:16:32.624Z,101282.69
2022-10-04T00:19:45.100Z,101290.59
2022-10-04T00:23:24.273Z,101289.69
2022-10-04T00:26:25.622Z,101282.59
2022-10-04T00:29:26.946Z,101285.34
2022-10-04T00:32:40.547Z,101285.38
2022-10-04T00:35:47.801Z,101285.44
2022-10-04T00:39:03.572Z,101289.91
2022-10-04T00:42:23.634Z,101283.72
2022-10-04T00:45:30.938Z,101282.03
2022-10-04T00:48:59.296Z,101286.47
2022-10-04T00:52:15.772Z,101288.16
2022-10-04T00:55:29.137Z,101285.50
2022-10-04T00:58:44.606Z,101277.56
2022-10-04T01:01:49.652Z,101276.69
2022-10-04T01:04:55.712Z,101279.31
2022-10-04T01:08:09.821Z,101278.56
2022-10-04T01:11:36.718Z,101277.88
2022-10-04T01:14:56.303Z,101273.63
2022-10-04T01:18:09.438Z,101262.50
2022-10-04T01:21:16.835Z,101265.63
2022-10-04T01:24:21.749Z,101256.31
2022-10-04T01:27:41.144Z,101251.25
2022-10-04T01:30:43.641Z,101261.75
2022-10-04T01:33:46.411Z,101242.28
2022-10-04T01:36:51.286Z,101239.63
2022-10-04T01:39:52.905Z,101228.31
2022-10-04T01:43:02.318Z,101232.81
2022-10-04T01:46:13.032Z,101227.69
2022-10-04T01:49:19.460Z,101214.66
2022-10-04T01:52:33.566Z,101231.44
2022-10-04T01:55:38.406Z,101221.13
2022-10-04T01:58:53.653Z,101210.69
2022-10-04T02:02:11.503Z,101215.94
2022-10-04T02:05:18.057Z,101209.66
2022-10-04T02:08:26.900Z,101212.38
2022-10-04T02:11:30.144Z,101208.06
2022-10-04T02:14:33.512Z,101210.78
2022-10-04T02:17:40.273Z,101206.41
2022-10-04T02:20:43.234Z,101208.94
2022-10-04T02:23:47.031Z,101202.81
2022-10-04T02:26:52.349Z,101202.97
2022-10-04T02:30:00.552Z,101199.56
2022-10-04T02:33:02.377Z,101200.44
2022-10-04T02:36:04.934Z,101187.34
2022-10-04T02:39:28.565Z,101187.34
2022-10-04T02:42:41.426Z,101176.78
2022-10-04T02:45:46.774Z,101175.81
2022-10-04T02:49:05.821Z,101174.22
2022-10-04T02:52:30.130Z,101170.78
2022-10-04T02:55:32.280Z,101175.09
2022-10-04T02:58:38.850Z,101165.53
2022-10-04T03:01:49.698Z,101168.97
2022-10-04T03:04:55.073Z,101169.03
2022-10-04T03:07:56.673Z,101169.91
2022-10-04T03:10:59.657Z,101175.25
2022-10-04T03:14:04.338Z,101184.88
2022-10-04T03:17:07.196Z,101176.94
2022-10-04T03:20:11.087Z,101175.97
2022-10-04T03:23:15.186Z,101175.88
2022-10-04T03:26:32.374Z,101168.50
2022-10-04T03:29:35.414Z,101174.28
2022-10-04T03:32:38.585Z,101155.63
2022-10-04T03:35:40.605Z,101157.28
2022-10-04T03:38:44.427Z,101151.84
2022-10-04T03:41:46.459Z,101157.84
2022-10-04T03:44:50.348Z,101156.88
2022-10-04T03:47:53.430Z,101151.56
2022-10-04T03:50:55.728Z,101140.19
2022-10-04T03:54:02.525Z,101143.59
2022-10-04T03:57:05.972Z,101147.13
2022-10-04T04:00:08.014Z,101142.72
2022-10-04T04:03:20.286Z,101164.63
2022-10-04T04:06:23.495Z,101169.00
2022-10-04T04:09:42.668Z,101167.28
2022-10-04T04:12:47.994Z,101158.53
2022-10-04T04:15:49.662Z,101174.31
2022-10-04T04:18:53.280Z,101172.53
2022-10-04T04:21:55.951Z,101168.09
2022-10-04T04:25:02.157Z,101166.22
2022-10-04T04:28:25.460Z,101160.03
2022-10-04T04:31:32.190Z,101164.34
2022-10-04T04:34:49.760Z,101166.94
2022-10-04T04:38:17.270Z,101166.94
2022-10-04T04:41:22.070Z,101166.97
2022-10-04T04:44:23.664Z,101170.91
2022-10-04T04:47:40.054Z,101172.06
2022-10-04T04:50:41.848Z,101171.41
2022-10-04T04:53:43.373Z,101172.38
2022-10-04T04:56:49.099Z,101176.09
2022-10-04T04:59:56.124Z,101174.41
2022-10-04T05:03:00.924Z,101183.28
2022-10-04T05:06:04.624Z,101179.94
2022-10-04T05:09:21.060Z,101179.22
2022-10-04T05:12:23.974Z,101180.19
2022-10-04T05:15:26.665Z,101181.28
2022-10-04T05:18:33.092Z,101181.44
2022-10-04T05:21:39.704Z,101186.66
2022-10-04T05:24:46.870Z,101187.59
2022-10-04T05:27:49.800Z,101183.97
2022-10-04T05:31:19.141Z,101187.34
2022-10-04T05:34:27.199Z,101178.53
2022-10-04T05:37:44.678Z,101187.25
2022-10-04T05:41:04.299Z,101182.78
2022-10-04T05:44:31.560Z,101188.81
2022-10-04T05:47:33.130Z,101174.69
2022-10-04T05:50:41.661Z,101178.97
2022-10-04T05:53:43.158Z,101169.50
2022-10-04T05:57:08.809Z,101170.28
2022-10-04T06:00:21.012Z,101174.66
2022-10-04T06:03:42.485Z,101164.06
2022-10-04T06:06:54.328Z,101167.38
2022-10-04T06:10:26.507Z,101169.94
2022-10-04T06:13:46.101Z,101164.66
2022-10-04T06:17:09.174Z,101175.06
2022-10-04T06:20:13.559Z,101170.53
2022-10-04T06:23:21.029Z,101169.56
2022-10-04T06:26:28.290Z,101183.41
2022-10-04T06:29:37.196Z,101185.03
2022-10-04T06:32:44.604Z,101186.63
2022-10-04T06:36:13.459Z,101190.00
2022-10-04T06:39:59.475Z,101190.75
2022-10-04T06:43:13.126Z,101199.34
2022-10-04T06:46:26.628Z,101196.69
2022-10-04T06:49:41.155Z,101199.25
2022-10-04T06:52:58.440Z,101197.47
2022-10-04T06:56:10.436Z,101205.28
2022-10-04T06:59:32.920Z,101192.00
2022-10-04T07:02:41.985Z,101189.28
2022-10-04T07:05:52.994Z,101193.66
2022-10-04T07:08:59.561Z,101198.78
2022-10-04T07:12:10.436Z,101189.91
2022-10-04T07:15:24.893Z,101187.97
2022-10-04T07:18:36.407Z,101205.50
2022-10-04T07:22:00.959Z,101209.78
2022-10-04T07:25:16.351Z,101202.69
2022-10-04T07:28:43.884Z,101202.56
2022-10-04T07:31:47.826Z,101211.19
2022-10-04T07:35:04.100Z,101213.59
2022-10-04T07:38:29.196Z,101218.59
2022-10-04T07:41:48.974Z,101220.09
2022-10-04T07:45:03.426Z,101221.50
2022-10-04T07:48:15.339Z,101224.00
2022-10-04T07:51:53.777Z,101228.97
2022-10-04T07:55:13.315Z,101218.19
2022-10-04T07:58:23.464Z,101209.97
2022-10-04T08:01:37.300Z,101203.69
2022-10-04T08:04:46.703Z,101207.81
2022-10-04T08:07:57.178Z,101217.34
2022-10-04T08:11:17.364Z,101224.16
2022-10-04T08:14:28.233Z,101220.50
2022-10-04T08:17:47.719Z,101225.56
2022-10-04T08:20:59.530Z,101223.44
2022-10-04T08:24:43.926Z,101215.97
2022-10-04T08:28:27.246Z,101208.69
2022-10-04T08:31:58.285Z,101203.97
2022-10-04T08:35:40.082Z,101206.44
2022-10-04T08:38:54.215Z,101200.88
2022-10-04T08:41:58.678Z,101207.72
2022-10-04T08:45:23.418Z,101202.31
2022-10-04T08:49:02.366Z,101205.94
2022-10-04T08:52:18.846Z,101203.69
2022-10-04T08:55:29.299Z,101185.53
2022-10-04T08:59:02.863Z,101188.63
2022-10-04T09:02:30.396Z,101188.31
2022-10-04T09:06:08.807Z,101185.38
2022-10-04T09:09:42.357Z,101184.72
2022-10-04T09:12:56.810Z,101186.16
2022-10-04T09:16:17.776Z,101193.13
2022-10-04T09:20:14.038Z,101212.28
2022-10-04T09:23:45.798Z,101205.16
2022-10-04T09:27:12.458Z,101200.28
2022-10-04T09:30:22.331Z,101198.38
2022-10-04T09:34:02.208Z,101195.69
2022-10-04T09:37:32.883Z,101196.59
2022-10-04T09:40:52.412Z,101200.56
2022-10-04T09:44:13.626Z,101198.16
2022-10-04T09:47:43.799Z,101194.94
2022-10-04T09:51:24.614Z,101189.22
2022-10-04T09:54:40.048Z,101179.00
2022-10-04T09:58:07.303Z,101184.97
2022-10-04T10:01:29.388Z,101184.66
2022-10-04T10:05:09.063Z,101183.06
2022-10-04T10:09:04.860Z,101187.31
2022-10-04T10:12:58.918Z,101185.28
2022-10-04T10:16:25.654Z,101184.88
2022-10-04T10:19:42.431Z,101185.84
2022-10-04T10:22:52.925Z,101188.78
2022-10-04T10:26:03.250Z,101182.66
2022-10-04T10:29:23.170Z,101183.72
2022-10-04T10:33:00.301Z,101173.75
2022-10-04T10:36:17.112Z,101168.94
2022-10-04T10:40:04.303Z,101169.97
2022-10-04T10:43:51.579Z,101166.44
2022-10-04T10:47:24.262Z,101174.56
2022-10-04T10:51:00.070Z,101170.84
2022-10-04T10:54:25.067Z,101166.44
2022-10-04T10:57:56.749Z,101161.94
2022-10-04T11:01:47.016Z,101163.25
2022-10-04T11:05:28.920Z,101160.53
2022-10-04T11:09:07.777Z,101150.97
2022-10-04T11:12:15.414Z,101150.56
2022-10-04T11:15:38.272Z,101147.88
2022-10-04T11:19:17.503Z,101145.06
2022-10-04T11:22:46.192Z,101137.84
2022-10-04T11:26:16.540Z,101137.09
2022-10-04T11:29:32.771Z,101133.78
2022-10-04T11:32:46.057Z,101132.25
2022-10-04T11:36:02.061Z,101130.34
2022-10-04T11:39:20.328Z,101130.72
2022-10-04T11:42:59.015Z,101131.25
2022-10-04T11:46:10.940Z,101127.28
2022-10-04T11:49:40.075Z,101128.28
2022-10-04T11:53:11.786Z,101119.22
2022-10-04T11:56:37.718Z,101120.97
2022-10-04T11:59:56.799Z,101128.88
2022-10-04T12:03:33.441Z,101124.53
2022-10-04T12:07:08.148Z,101118.06
2022-10-04T12:10:18.809Z,101116.47
2022-10-04T12:13:42.038Z,101106.59
2022-10-04T12:17:08.495Z,101104.06
2022-10-04T12:20:35.766Z,101103.06
2022-10-04T12:23:45.963Z,101099.47
2022-10-04T12:27:03.105Z,101082.22
2022-10-04T12:30:39.182Z,101082.72
2022-10-04T12:33:57.270Z,101081.75
2022-10-04T12:37:13.621Z,101074.38
2022-10-04T12:40:21.455Z,101080.09
2022-10-04T12:43:30.767Z,101077.84
2022-10-04T12:47:01.556Z,101075.25
2022-10-04T12:50:19.341Z,101065.13
2022-10-04T12:53:58.995Z,101061.78
2022-10-04T12:57:08.792Z,101071.00
2022-10-04T13:00:14.824Z,101056.78
2022-10-04T13:03:52.745Z,101057.38
2022-10-04T13:07:07.135Z,101065.66
2022-10-04T13:10:27.386Z,101047.91
2022-10-04T13:13:34.926Z,101042.69
2022-10-04T13:20:41.434Z,101039.63
2022-10-04T13:24:07.893Z,101034.53
2022-10-04T13:27:18.607Z,101034.16
2022-10-04T13:30:37.552Z,101039.16
2022-10-04T13:33:38.869Z,101037.47
2022-10-04T13:37:00.230Z,101036.22
2022-10-04T13:40:21.381Z,101040.16
2022-10-04T13:43:34.812Z,101036.38
2022-10-04T13:46:59.105Z,101033.44
2022-10-04T13:50:14.798Z,101024.09
2022-10-04T13:53:53.957Z,101027.34
2022-10-04T13:57:13.997Z,101023.53
2022-10-04T14:00:34.587Z,101027.66
2022-10-04T14:04:00.475Z,101026.00
2022-10-04T14:07:26.662Z,101022.69
2022-10-04T14:10:53.257Z,101016.97
2022-10-04T14:14:17.299Z,101004.84
2022-10-04T14:17:42.055Z,101015.91
2022-10-04T14:21:15.313Z,101007.84
2022-10-04T14:24:45.849Z,101005.94
2022-10-04T14:27:56.248Z,101006.81
2022-10-04T14:31:42.445Z,100992.03
2022-10-04T14:34:59.424Z,100986.91
2022-10-04T14:38:34.737Z,100991.34
2022-10-04T14:42:00.484Z,100991.34
2022-10-04T14:45:08.737Z,100985.19
2022-10-04T14:48:39.129Z,100985.00
2022-10-04T14:52:18.223Z,100981.78
2022-10-04T14:55:55.614Z,100982.44
2022-10-04T14:59:21.623Z,100987.22
2022-10-04T15:03:02.915Z,100984.97
2022-10-04T15:06:36.584Z,100984.09
2022-10-04T15:09:54.404Z,100975.78
2022-10-04T15:13:10.345Z,100976.75
2022-10-04T15:16:22.161Z,100970.25
2022-10-04T15:19:29.474Z,100970.63
2022-10-04T15:22:55.690Z,100973.69
2022-10-04T15:26:08.753Z,100967.94
2022-10-04T15:29:32.953Z,100962.78
2022-10-04T15:33:16.030Z,100960.25
2022-10-04T15:36:43.961Z,100953.38
2022-10-04T15:39:58.118Z,100959.09
2022-10-04T15:43:14.833Z,100957.16
2022-10-04T15:46:49.524Z,100953.91
2022-10-04T15:49:58.717Z,100956.78
2022-10-04T15:53:27.898Z,100953.34
2022-10-04T15:56:56.324Z,100955.44
2022-10-04T16:00:15.578Z,100950.66
2022-10-04T16:03:51.666Z,100943.06
2022-10-04T16:06:59.906Z,100938.38
2022-10-04T16:10:28.177Z,100949.22
2022-10-04T16:13:50.553Z,100948.63
2022-10-04T16:17:10.365Z,100958.63
2022-10-04T16:20:31.173Z,100961.75
2022-10-04T16:23:36.113Z,100954.41
2022-10-04T16:26:56.141Z,100943.41
2022-10-04T16:30:25.626Z,100948.94
2022-10-04T16:33:43.085Z,100941.50
2022-10-04T16:36:52.482Z,100945.81
2022-10-04T16:40:16.055Z,100944.97
2022-10-04T16:43:17.384Z,100956.25
2022-10-04T16:46:29.194Z,100952.97
2022-10-04T16:49:45.064Z,100947.09
2022-10-04T16:53:18.623Z,100937.97
2022-10-04T16:56:24.055Z,100924.19
2022-10-04T16:59:41.859Z,100920.19
2022-10-04T17:03:07.628Z,100923.31
2022-10-04T17:06:14.849Z,100914.19
2022-10-04T17:09:24.871Z,100915.47
2022-10-04T17:12:46.843Z,100914.00
2022-10-04T17:16:14.788Z,100933.03
2022-10-04T17:19:42.081Z,100928.19
2022-10-04T17:23:05.119Z,100928.66
2022-10-04T17:26:45.323Z,100935.34
2022-10-04T17:29:58.505Z,100944.56
2022-10-04T17:33:18.666Z,100949.50
2022-10-04T17:36:32.997Z,100944.63
2022-10-04T17:39:48.012Z,100954.28
2022-10-04T17:43:23.590Z,100960.19
2022-10-04T17:46:46.405Z,100967.47
2022-10-04T17:50:41.665Z,100967.56
2022-10-04T17:54:07.396Z,100975.19
2022-10-04T17:57:11.702Z,100976.50
2022-10-04T18:00:17.065Z,100977.88
2022-10-04T18:03:24.267Z,100969.25
2022-10-04T18:06:31.497Z,100972.28
2022-10-04T18:09:51.941Z,100961.84
2022-10-04T18:13:02.392Z,100968.38
2022-10-04T18:16:31.348Z,100973.88
2022-10-04T18:19:44.828Z,100970.75
2022-10-04T18:22:48.738Z,100970.81
2022-10-04T18:25:55.054Z,100971.84
2022-10-04T18:28:58.806Z,100973.69
2022-10-04T18:32:01.313Z,100974.16
2022-10-04T18:35:21.625Z,100967.63
2022-10-04T18:38:36.007Z,100977.59
2022-10-04T18:41:52.092Z,100985.34
2022-10-04T18:45:01.598Z,100976.59
2022-10-04T18:48:15.264Z,100977.47
2022-10-04T18:52:00.098Z,100975.13
2022-10-04T18:55:29.760Z,100977.66
2022-10-04T18:59:04.171Z,100981.34
2022-10-04T19:02:17.873Z,100984.91
2022-10-04T19:05:36.504Z,100993.78
2022-10-04T19:09:08.936Z,100994.28
2022-10-04T19:12:21.321Z,100990.03
2022-10-04T19:15:41.628Z,100999.81
2022-10-04T19:19:16.176Z,100987.38
2022-10-04T19:22:55.973Z,100999.09
2022-10-04T19:26:31.173Z,100998.22
2022-10-04T19:29:52.372Z,101006.13
2022-10-04T19:33:13.771Z,101008.66
2022-10-04T19:36:28.026Z,101008.66
2022-10-04T19:39:39.557Z,101014.97
2022-10-04T19:42:49.917Z,101020.31
2022-10-04T19:46:20.678Z,101030.06
2022-10-04T19:50:02.698Z,101032.84
2022-10-04T19:53:17.249Z,101036.63
2022-10-04T19:56:23.641Z,101038.63
2022-10-04T19:59:42.712Z,101041.50
2022-10-04T20:02:48.397Z,101042.56
2022-10-04T20:05:53.237Z,101045.31
2022-10-04T20:09:02.287Z,101051.78
2022-10-04T20:12:05.437Z,101052.00
2022-10-04T20:15:34.829Z,101052.97
2022-10-04T20:18:39.858Z,101039.03
2022-10-04T20:21:41.915Z,101054.41
2022-10-04T20:24:44.093Z,101055.44
2022-10-04T20:27:45.417Z,101061.88
2022-10-04T20:30:52.347Z,101070.84
2022-10-04T20:33:53.822Z,101063.09
2022-10-04T20:36:55.269Z,101060.59
2022-10-04T20:39:57.043Z,101061.50
2022-10-04T20:43:13.796Z,101053.53
2022-10-04T20:46:24.052Z,101065.00
2022-10-04T20:49:26.942Z,101069.56
2022-10-04T20:52:34.607Z,101073.22
2022-10-04T20:55:38.817Z,101081.25
2022-10-04T20:58:41.097Z,101075.97
2022-10-04T21:01:45.898Z,101091.06
2022-10-04T21:04:50.416Z,101092.91
2022-10-04T21:08:37.086Z,101085.06
2022-10-04T21:11:50.928Z,101082.53
2022-10-04T21:15:07.443Z,101084.44
2022-10-04T21:18:10.838Z,101091.47
2022-10-04T21:21:14.546Z,101088.88
2022-10-04T21:24:39.163Z,101086.38
2022-10-04T21:27:43.710Z,101078.59
2022-10-04T21:30:45.105Z,101073.34
2022-10-04T21:33:47.284Z,101077.88
2022-10-04T21:36:49.040Z,101075.31
2022-10-04T21:39:50.430Z,101079.75
2022-10-04T21:42:51.834Z,101072.75
2022-10-04T21:45:53.528Z,101071.09
2022-10-04T21:48:55.004Z,101085.22
2022-10-04T21:51:56.394Z,101071.16
2022-10-04T21:54:57.778Z,101069.50
2022-10-04T21:57:59.816Z,101064.34
2022-10-04T22:01:01.271Z,101065.38
2022-10-04T22:04:02.920Z,101067.25
2022-10-04T22:07:04.392Z,101058.53
2022-10-04T22:10:06.028Z,101057.75
2022-10-04T22:13:07.455Z,101055.97
2022-10-04T22:16:09.060Z,101051.50
2022-10-04T22:19:10.503Z,101043.69
2022-10-04T22:22:15.560Z,101046.44
2022-10-04T22:25:19.925Z,101051.91
2022-10-04T22:28:28.627Z,101056.44
2022-10-04T22:31:30.218Z,101051.28
2022-10-04T22:34:31.682Z,101046.91
2022-10-04T22:37:33.489Z,101053.19
2022-10-04T22:40:34.897Z,101051.47
2022-10-04T22:43:36.442Z,101048.06
2022-10-04T22:46:40.668Z,101053.28
2022-10-04T22:49:44.521Z,101042.94
2022-10-04T22:52:45.922Z,101042.06
2022-10-04T22:55:48.837Z,101041.28
2022-10-04T22:58:50.220Z,101041.38
2022-10-04T23:01:51.737Z,101039.66
2022-10-04T23:04:56.901Z,101036.97
2022-10-04T23:07:58.409Z,101036.97
2022-10-04T23:11:00.423Z,101030.88
2022-10-04T23:14:01.853Z,101026.47
2022-10-04T23:17:15.080Z,101023.03
2022-10-04T23:20:18.715Z,101018.69
2022-10-04T23:23:23.277Z,101009.84
2022-10-04T23:26:31.682Z,100998.41
2022-10-04T23:29:34.877Z,101009.84
2022-10-04T23:32:36.291Z,101010.78
2022-10-04T23:35:38.514Z,101008.97
2022-10-04T23:38:42.068Z,101003.72
2022-10-04T23:41:44.080Z,101006.34
2022-10-04T23:44:50.106Z,101002.94
2022-10-04T23:47:56.992Z,101006.41
2022-10-04T23:50:59.898Z,101001.28
2022-10-04T23:54:01.324Z,101004.75
2022-10-04T23:57:02.865Z,101001.22
